Time;durP1;ratioP1;P1;durP2;ratioP2;P2;SDS_P1;SDS_P2;PMS_P1;PMS_P2;Temp;Humidity;BMP_temperature;BMP_pressure;BME280_temperature;BME280_humidity;BME280_pressure;Samples;Min_cycle;Max_cycle;Signal;HPM_P1;HPM_P2
2021/09/09 00:06:47;;;;;;;8.38;3.40;;;19.10;99.90;;;;;;20488424;28;20055;-44
2021/09/09 00:16:49;;;;;;;8.00;2.85;;;19.10;99.90;;;;;;20475060;28;20417;-44
2021/09/09 00:26:50;;;;;;;7.72;3.78;;;18.90;99.90;;;;;;20500559;28;20635;-44
2021/09/09 00:36:51;;;;;;;7.50;3.70;;;18.80;99.90;;;;;;20467810;28;20043;-44
2021/09/09 00:46:58;;;;;;;7.85;3.40;;;18.80;99.90;;;;;;20467092;28;20488;-44
2021/09/09 00:57:01;;;;;;;8.50;4.00;;;18.70;99.90;;;;;;20495668;28;20058;-44
2021/09/09 01:07:03;;;;;;;5.93;2.92;;;18.50;99.90;;;;;;20496115;28;20487;-44
2021/09/09 01:17:04;;;;;;;7.65;3.75;;;18.50;99.90;;;;;;20476194;28;20035;-44
2021/09/09 01:27:07;;;;;;;9.60;3.63;;;18.40;99.90;;;;;;20503153;28;20049;-44
2021/09/09 01:37:12;;;;;;;9.90;3.60;;;18.20;99.90;;;;;;20476674;28;20039;-44
2021/09/09 01:47:13;;;;;;;8.15;4.10;;;18.00;99.90;;;;;;20514957;28;20050;-44
2021/09/09 01:57:14;;;;;;;7.97;3.65;;;17.90;99.90;;;;;;20485196;28;20036;-44
2021/09/09 02:07:15;;;;;;;8.73;3.78;;;17.90;99.90;;;;;;20484971;28;20348;-44
2021/09/09 02:17:16;;;;;;;10.73;4.47;;;17.80;99.90;;;;;;20484338;28;20043;-44
2021/09/09 02:27:18;;;;;;;10.20;4.18;;;17.70;99.90;;;;;;20487293;28;20043;-44
2021/09/09 02:37:19;;;;;;;9.48;5.07;;;17.60;99.90;;;;;;20466420;28;20070;-44
2021/09/09 02:47:20;;;;;;;12.30;4.45;;;17.40;99.90;;;;;;20464866;28;20059;-44
2021/09/09 02:57:21;;;;;;;9.70;3.90;;;17.40;99.90;;;;;;20468381;28;20074;-44
2021/09/09 03:07:22;;;;;;;8.60;3.90;;;17.50;99.90;;;;;;20484997;28;20066;-44
2021/09/09 03:17:23;;;;;;;9.70;3.70;;;17.60;99.90;;;;;;20479401;28;20291;-44
2021/09/09 03:27:24;;;;;;;10.35;4.03;;;17.60;99.90;;;;;;20469697;28;20391;-44
2021/09/09 03:37:25;;;;;;;11.77;3.47;;;17.60;99.90;;;;;;20466621;28;20043;-44
2021/09/09 03:47:26;;;;;;;10.40;4.57;;;17.60;99.90;;;;;;20466964;28;20054;-43
2021/09/09 03:57:27;;;;;;;8.27;4.05;;;17.60;99.90;;;;;;20460411;28;20050;-44
2021/09/09 04:07:28;;;;;;;13.98;4.75;;;17.60;99.90;;;;;;20462965;28;20287;-44
2021/09/09 04:17:30;;;;;;;13.25;5.38;;;17.50;99.90;;;;;;20472208;28;20035;-44
2021/09/09 04:27:33;;;;;;;8.88;4.13;;;17.50;99.90;;;;;;20493706;28;20051;-44
2021/09/09 04:37:37;;;;;;;12.82;5.00;;;17.40;99.90;;;;;;20478163;28;20578;-43
2021/09/09 04:47:38;;;;;;;10.82;5.22;;;17.20;99.90;;;;;;20468047;28;20519;-43
2021/09/09 04:57:39;;;;;;;13.93;6.05;;;17.40;99.90;;;;;;20491891;28;20067;-44
2021/09/09 05:07:41;;;;;;;19.55;5.97;;;17.50;99.90;;;;;;20503650;28;20561;-44
2021/09/09 05:17:42;;;;;;;14.07;5.75;;;17.60;99.90;;;;;;20475740;28;20035;-43
2021/09/09 05:27:43;;;;;;;15.10;5.70;;;17.60;99.90;;;;;;20479939;28;20055;-44
2021/09/09 05:37:44;;;;;;;16.15;6.38;;;17.70;99.90;;;;;;20475159;28;20035;-44
2021/09/09 05:47:45;;;;;;;13.80;6.03;;;17.60;99.90;;;;;;20471439;28;20051;-44
2021/09/09 05:57:47;;;;;;;8.98;4.50;;;17.60;99.90;;;;;;20473323;28;20035;-44
2021/09/09 06:07:49;;;;;;;14.98;7.07;;;17.70;99.90;;;;;;20476810;28;20059;-44
2021/09/09 06:17:50;;;;;;;15.77;5.85;;;17.70;99.90;;;;;;20495426;28;20065;-44
2021/09/09 06:27:51;;;;;;;13.63;5.68;;;17.80;99.90;;;;;;20480018;28;20613;-44
2021/09/09 06:37:52;;;;;;;10.27;4.75;;;18.00;99.90;;;;;;20504938;28;20053;-43
2021/09/09 06:47:54;;;;;;;12.05;4.82;;;18.10;99.90;;;;;;20494635;28;20053;-44
2021/09/09 06:57:57;;;;;;;11.98;5.55;;;18.30;99.90;;;;;;20502901;28;20050;-44
2021/09/09 07:07:58;;;;;;;8.68;4.53;;;18.70;99.90;;;;;;20505982;28;20043;-44
2021/09/09 07:17:59;;;;;;;13.90;5.32;;;19.10;99.90;;;;;;20488351;28;20069;-44
2021/09/09 07:28:00;;;;;;;10.73;5.07;;;19.40;99.90;;;;;;20481094;28;20058;-44
2021/09/09 07:38:01;;;;;;;11.35;5.30;;;19.90;99.90;;;;;;20491698;28;20594;-44
2021/09/09 07:48:03;;;;;;;12.45;5.10;;;19.90;99.90;;;;;;20500399;28;20058;-44
2021/09/09 07:58:04;;;;;;;10.93;5.05;;;19.90;99.90;;;;;;20519142;28;20054;-44
2021/09/09 08:08:06;;;;;;;15.43;6.05;;;20.10;99.90;;;;;;20511075;28;20456;-44
2021/09/09 08:18:07;;;;;;;10.45;5.68;;;20.50;99.90;;;;;;20507090;28;20272;-44
2021/09/09 08:28:09;;;;;;;12.35;5.90;;;20.70;99.90;;;;;;20514472;28;20047;-44
2021/09/09 08:38:10;;;;;;;8.32;3.90;;;21.00;99.90;;;;;;20508847;28;20039;-44
2021/09/09 08:48:12;;;;;;;10.10;5.05;;;21.30;99.90;;;;;;20509309;28;20844;-44
2021/09/09 08:58:13;;;;;;;11.30;5.22;;;21.70;99.90;;;;;;20513350;28;20054;-44
2021/09/09 09:08:14;;;;;;;10.98;5.32;;;21.90;99.90;;;;;;20505405;28;20047;-44
2021/09/09 09:18:19;;;;;;;16.15;7.00;;;22.10;99.90;;;;;;20504251;28;20043;-44
2021/09/09 09:28:35;;;;;;;12.60;6.15;;;22.10;99.90;;;;;;20487529;28;20058;-44
2021/09/09 09:38:36;;;;;;;10.82;5.55;;;22.50;99.90;;;;;;20505195;28;20047;-44
2021/09/09 09:48:37;;;;;;;13.48;5.90;;;22.70;99.90;;;;;;20508973;28;20051;-44
2021/09/09 09:58:38;;;;;;;11.50;5.53;;;22.90;99.90;;;;;;20485083;28;20200;-44
2021/09/09 10:08:40;;;;;;;16.17;7.07;;;23.30;99.90;;;;;;20489582;28;20051;-44
2021/09/09 10:18:42;;;;;;;12.45;5.90;;;23.70;99.90;;;;;;20473191;28;20047;-44
2021/09/09 10:28:45;;;;;;;10.35;5.07;;;24.00;99.90;;;;;;20447886;28;20407;-44
2021/09/09 10:38:46;;;;;;;12.57;6.22;;;24.30;99.90;;;;;;20461095;28;20073;-44
2021/09/09 10:49:05;;;;;;;16.85;6.25;;;25.00;99.90;;;;;;20481481;28;20054;-44
2021/09/09 10:59:14;;;;;;;15.80;7.35;;;25.30;99.90;;;;;;20491813;28;20042;-44
2021/09/09 11:09:15;;;;;;;13.00;5.53;;;25.70;99.90;;;;;;20492545;28;20048;-45
2021/09/09 11:19:22;;;;;;;9.90;5.28;;;26.40;99.90;;;;;;20469811;28;20067;-45
2021/09/09 11:29:24;;;;;;;15.68;6.00;;;26.80;99.90;;;;;;20497296;28;20399;-44
2021/09/09 11:39:33;;;;;;;11.27;5.93;;;27.00;99.90;;;;;;20475302;28;20056;-44
2021/09/09 11:49:35;;;;;;;6.35;3.75;;;27.10;99.90;;;;;;20434189;28;20142;-45
2021/09/09 11:59:50;;;;;;;9.02;4.25;;;27.40;99.90;;;;;;20468253;28;20048;-45
2021/09/09 12:10:06;;;;;;;10.40;4.90;;;27.30;99.90;;;;;;20466608;28;20051;-45
2021/09/09 12:20:11;;;;;;;9.63;3.97;;;27.40;99.90;;;;;;20458603;28;20399;-45
2021/09/09 12:30:13;;;;;;;8.13;3.88;;;28.20;99.90;;;;;;20476409;28;20055;-45
2021/09/09 12:40:38;;;;;;;10.32;4.53;;;28.50;99.90;;;;;;20473508;28;20407;-45
2021/09/09 12:50:49;;;;;;;5.80;3.45;;;28.20;99.90;;;;;;20469832;28;20578;-45
2021/09/09 13:00:50;;;;;;;9.63;4.55;;;28.50;99.90;;;;;;20449678;28;20032;-44
2021/09/09 13:10:52;;;;;;;9.27;4.80;;;28.00;99.90;;;;;;20483899;28;20054;-44
2021/09/09 13:20:55;;;;;;;8.30;4.20;;;27.90;99.90;;;;;;20480965;28;20039;-45
2021/09/09 13:30:56;;;;;;;10.77;5.55;;;27.90;99.90;;;;;;20466658;28;20055;-45
2021/09/09 13:40:58;;;;;;;8.20;4.65;;;27.40;99.90;;;;;;20476657;28;20056;-44
2021/09/09 13:51:00;;;;;;;9.82;4.80;;;27.50;99.90;;;;;;20501384;28;20101;-45
2021/09/09 14:01:01;;;;;;;8.00;3.55;;;26.60;99.90;;;;;;20471287;28;20247;-45
2021/09/09 14:11:02;;;;;;;9.93;4.72;;;26.50;99.90;;;;;;20481849;28;20412;-44
2021/09/09 14:21:03;;;;;;;9.20;3.95;;;26.10;99.90;;;;;;20459052;28;20039;-45
2021/09/09 14:31:05;;;;;;;5.93;2.70;;;26.80;99.90;;;;;;20464805;28;20047;-44
2021/09/09 14:41:06;;;;;;;4.93;1.65;;;26.20;99.90;;;;;;20474030;28;20510;-44
2021/09/09 14:51:08;;;;;;;6.53;1.17;;;25.40;99.90;;;;;;20496625;28;20055;-44
2021/09/09 15:01:09;;;;;;;3.90;1.40;;;25.30;99.90;;;;;;20489898;28;20038;-44
2021/09/09 15:11:10;;;;;;;2.47;1.20;;;25.10;99.90;;;;;;20492227;28;20412;-45
2021/09/09 15:21:12;;;;;;;4.43;1.33;;;25.40;99.90;;;;;;20479944;28;20046;-44
2021/09/09 15:31:13;;;;;;;2.40;1.00;;;25.40;99.90;;;;;;20504422;28;20541;-45
2021/09/09 15:41:14;;;;;;;3.42;1.27;;;25.30;99.90;;;;;;20498844;28;20042;-44
2021/09/09 15:51:16;;;;;;;5.15;1.92;;;24.70;99.90;;;;;;20495412;28;20055;-45
2021/09/09 16:01:18;;;;;;;1.63;0.65;;;24.50;99.90;;;;;;20492556;28;20035;-45
2021/09/09 16:11:19;;;;;;;1.55;0.70;;;24.30;99.90;;;;;;20501870;28;20047;-44
2021/09/09 16:21:22;;;;;;;1.42;0.40;;;24.10;99.90;;;;;;20503471;28;20047;-45
2021/09/09 16:31:23;;;;;;;3.75;0.50;;;24.00;99.90;;;;;;20498662;28;20614;-44
2021/09/09 16:41:24;;;;;;;1.38;0.52;;;24.10;99.90;;;;;;20512727;28;20055;-44
2021/09/09 16:51:26;;;;;;;1.55;0.40;;;24.20;99.90;;;;;;20502427;28;20043;-44
2021/09/09 17:01:28;;;;;;;0.73;0.20;;;24.10;99.90;;;;;;20510935;28;20402;-44
2021/09/09 17:11:29;;;;;;;1.38;0.50;;;24.00;99.90;;;;;;20499312;28;20488;-44
2021/09/09 17:21:31;;;;;;;0.93;0.30;;;23.90;99.90;;;;;;20495009;28;20035;-44
2021/09/09 17:31:32;;;;;;;0.75;0.35;;;23.70;99.90;;;;;;20491998;28;20470;-44
2021/09/09 17:41:34;;;;;;;0.82;0.20;;;23.40;99.90;;;;;;20505105;28;20438;-44
2021/09/09 17:51:35;;;;;;;2.22;0.30;;;23.20;99.90;;;;;;20494180;28;20062;-44
2021/09/09 18:01:36;;;;;;;1.50;0.55;;;22.90;99.90;;;;;;20483349;28;20448;-44
2021/09/09 18:11:37;;;;;;;0.90;0.35;;;22.70;99.90;;;;;;20499654;28;20043;-44
2021/09/09 18:21:38;;;;;;;0.70;0.47;;;22.40;99.90;;;;;;20491765;28;20059;-44
2021/09/09 18:31:39;;;;;;;1.08;0.50;;;22.30;99.90;;;;;;20505911;28;20518;-44
2021/09/09 18:41:40;;;;;;;0.85;0.30;;;22.10;99.90;;;;;;20498006;28;20050;-44
2021/09/09 18:51:41;;;;;;;1.52;0.60;;;21.80;99.90;;;;;;20473034;28;20051;-44
2021/09/09 19:01:44;;;;;;;1.00;0.35;;;21.70;99.90;;;;;;20483489;28;20051;-44
2021/09/09 19:11:45;;;;;;;1.42;0.60;;;21.50;99.90;;;;;;20486100;28;20070;-43
2021/09/09 19:21:47;;;;;;;1.08;0.55;;;21.40;99.90;;;;;;20498303;28;20057;-44
2021/09/09 19:31:48;;;;;;;3.22;1.02;;;21.40;99.90;;;;;;20488942;28;20055;-44
2021/09/09 19:41:49;;;;;;;2.13;0.60;;;21.20;99.90;;;;;;20500076;28;20040;-44
2021/09/09 19:51:51;;;;;;;2.97;0.60;;;21.10;99.90;;;;;;20508954;28;20058;-44
2021/09/09 20:01:52;;;;;;;1.83;0.77;;;21.00;99.90;;;;;;20497946;28;20043;-44
2021/09/09 20:11:53;;;;;;;1.95;0.30;;;20.90;99.90;;;;;;20514553;28;20067;-44
2021/09/09 20:21:55;;;;;;;1.13;0.63;;;21.10;99.90;;;;;;20487325;28;20043;-44
2021/09/09 20:31:56;;;;;;;1.42;0.70;;;21.10;99.90;;;;;;20513655;28;20062;-44
2021/09/09 20:41:57;;;;;;;1.50;0.55;;;21.00;99.90;;;;;;20497055;28;20034;-44
2021/09/09 20:51:58;;;;;;;1.85;0.68;;;20.90;99.90;;;;;;20496660;28;20058;-44
2021/09/09 21:01:59;;;;;;;1.98;0.88;;;20.80;99.90;;;;;;20503083;28;20032;-44
2021/09/09 21:12:00;;;;;;;3.33;1.00;;;20.70;99.90;;;;;;20508561;28;20053;-44
2021/09/09 21:22:02;;;;;;;2.35;1.00;;;20.70;99.90;;;;;;20500935;28;20047;-44
2021/09/09 21:32:06;;;;;;;1.85;0.77;;;20.70;99.90;;;;;;20483491;28;20055;-44
2021/09/09 21:42:07;;;;;;;2.08;1.00;;;20.50;99.90;;;;;;20485302;28;20500;-44
2021/09/09 21:52:09;;;;;;;2.40;1.20;;;20.40;99.90;;;;;;20507161;28;20050;-44
2021/09/09 22:02:10;;;;;;;2.58;0.82;;;20.50;99.90;;;;;;20483529;28;20488;-44
2021/09/09 22:12:11;;;;;;;2.20;0.88;;;20.50;99.90;;;;;;20477737;28;20530;-44
2021/09/09 22:22:12;;;;;;;3.08;0.82;;;20.40;99.90;;;;;;20484157;28;20039;-44
2021/09/09 22:32:13;;;;;;;3.15;0.90;;;20.30;99.90;;;;;;20470360;28;20492;-44
2021/09/09 22:42:15;;;;;;;4.30;1.13;;;20.20;99.90;;;;;;20479308;28;20042;-44
2021/09/09 22:52:16;;;;;;;8.15;3.00;;;20.20;99.90;;;;;;20496998;28;20272;-43
2021/09/09 23:02:18;;;;;;;9.90;4.30;;;20.20;99.90;;;;;;20468244;28;20046;-43
2021/09/09 23:12:19;;;;;;;8.30;4.10;;;20.30;99.90;;;;;;20514982;28;20046;-44
2021/09/09 23:22:20;;;;;;;12.50;5.10;;;20.40;99.90;;;;;;20508231;28;20043;-43
2021/09/09 23:32:21;;;;;;;9.77;5.07;;;20.40;99.90;;;;;;20501508;28;20047;-44
2021/09/09 23:42:22;;;;;;;11.63;4.63;;;20.40;99.90;;;;;;20509352;28;20054;-44
2021/09/09 23:52:23;;;;;;;10.30;4.88;;;20.20;99.90;;;;;;20495439;28;20503;-43
